sensor_id;sensor_type;location;lat;lon;timestamp;P1;durP1;ratioP1;P2;durP2;ratioP2
4939;SDS011;2485;49.326;7.214;2023-02-23T00:00:12;50.73;;;24.17;;
4939;SDS011;2485;49.326;7.214;2023-02-23T00:02:45;49.73;;;23.53;;
4939;SDS011;2485;49.326;7.214;2023-02-23T00:05:11;48.10;;;23.20;;
4939;SDS011;2485;49.326;7.214;2023-02-23T00:07:37;54.30;;;25.07;;
4939;SDS011;2485;49.326;7.214;2023-02-23T00:10:04;44.83;;;22.57;;
4939;SDS011;2485;49.326;7.214;2023-02-23T00:12:31;41.73;;;22.80;;
4939;SDS011;2485;49.326;7.214;2023-02-23T00:14:59;51.83;;;25.57;;
4939;SDS011;2485;49.326;7.214;2023-02-23T00:17:26;50.10;;;25.57;;
4939;SDS011;2485;49.326;7.214;2023-02-23T00:19:55;41.67;;;21.83;;
4939;SDS011;2485;49.326;7.214;2023-02-23T00:22:23;48.73;;;25.03;;
4939;SDS011;2485;49.326;7.214;2023-02-23T00:24:49;43.47;;;23.73;;
4939;SDS011;2485;49.326;7.214;2023-02-23T00:27:15;56.30;;;24.40;;
4939;SDS011;2485;49.326;7.214;2023-02-23T00:29:44;47.93;;;24.03;;
4939;SDS011;2485;49.326;7.214;2023-02-23T00:32:14;45.63;;;23.00;;
4939;SDS011;2485;49.326;7.214;2023-02-23T00:34:43;46.97;;;24.13;;
4939;SDS011;2485;49.326;7.214;2023-02-23T00:37:13;44.47;;;22.80;;
4939;SDS011;2485;49.326;7.214;2023-02-23T00:39:39;47.43;;;22.20;;
4939;SDS011;2485;49.326;7.214;2023-02-23T00:42:06;45.47;;;23.23;;
4939;SDS011;2485;49.326;7.214;2023-02-23T00:44:32;47.10;;;23.20;;
4939;SDS011;2485;49.326;7.214;2023-02-23T00:46:59;47.97;;;23.77;;
4939;SDS011;2485;49.326;7.214;2023-02-23T00:49:27;43.27;;;22.17;;
4939;SDS011;2485;49.326;7.214;2023-02-23T00:51:53;47.10;;;23.77;;
4939;SDS011;2485;49.326;7.214;2023-02-23T00:54:20;50.10;;;23.07;;
4939;SDS011;2485;49.326;7.214;2023-02-23T00:56:46;47.37;;;24.07;;
4939;SDS011;2485;49.326;7.214;2023-02-23T00:59:13;47.70;;;23.13;;
4939;SDS011;2485;49.326;7.214;2023-02-23T01:01:40;43.57;;;22.90;;
4939;SDS011;2485;49.326;7.214;2023-02-23T01:04:06;41.83;;;21.87;;
4939;SDS011;2485;49.326;7.214;2023-02-23T01:06:34;45.77;;;21.40;;
4939;SDS011;2485;49.326;7.214;2023-02-23T01:09:05;46.00;;;22.60;;
4939;SDS011;2485;49.326;7.214;2023-02-23T01:11:32;45.10;;;21.67;;
4939;SDS011;2485;49.326;7.214;2023-02-23T01:13:59;47.83;;;23.77;;
4939;SDS011;2485;49.326;7.214;2023-02-23T01:16:27;43.80;;;21.60;;
4939;SDS011;2485;49.326;7.214;2023-02-23T01:18:54;40.97;;;22.13;;
4939;SDS011;2485;49.326;7.214;2023-02-23T01:21:21;41.63;;;20.97;;
4939;SDS011;2485;49.326;7.214;2023-02-23T01:23:49;43.83;;;22.00;;
4939;SDS011;2485;49.326;7.214;2023-02-23T01:26:16;44.03;;;22.00;;
4939;SDS011;2485;49.326;7.214;2023-02-23T01:28:43;44.50;;;23.00;;
4939;SDS011;2485;49.326;7.214;2023-02-23T01:31:09;45.80;;;22.17;;
4939;SDS011;2485;49.326;7.214;2023-02-23T01:33:35;39.67;;;21.00;;
4939;SDS011;2485;49.326;7.214;2023-02-23T01:36:02;43.73;;;21.67;;
4939;SDS011;2485;49.326;7.214;2023-02-23T01:38:28;42.63;;;21.43;;
4939;SDS011;2485;49.326;7.214;2023-02-23T01:40:56;43.23;;;21.93;;
4939;SDS011;2485;49.326;7.214;2023-02-23T01:43:22;41.97;;;21.70;;
4939;SDS011;2485;49.326;7.214;2023-02-23T01:45:53;41.97;;;21.37;;
4939;SDS011;2485;49.326;7.214;2023-02-23T01:48:21;42.77;;;21.70;;
4939;SDS011;2485;49.326;7.214;2023-02-23T01:50:51;40.93;;;22.53;;
4939;SDS011;2485;49.326;7.214;2023-02-23T01:53:18;47.10;;;22.17;;
4939;SDS011;2485;49.326;7.214;2023-02-23T01:55:46;40.47;;;22.20;;
4939;SDS011;2485;49.326;7.214;2023-02-23T01:58:15;40.37;;;19.57;;
4939;SDS011;2485;49.326;7.214;2023-02-23T02:00:44;43.53;;;21.77;;
4939;SDS011;2485;49.326;7.214;2023-02-23T02:03:13;44.83;;;23.60;;
4939;SDS011;2485;49.326;7.214;2023-02-23T02:05:40;48.07;;;23.50;;
4939;SDS011;2485;49.326;7.214;2023-02-23T02:08:07;43.93;;;22.10;;
4939;SDS011;2485;49.326;7.214;2023-02-23T02:10:35;44.70;;;22.30;;
4939;SDS011;2485;49.326;7.214;2023-02-23T02:13:18;49.57;;;23.33;;
4939;SDS011;2485;49.326;7.214;2023-02-23T02:15:52;46.07;;;23.03;;
4939;SDS011;2485;49.326;7.214;2023-02-23T02:18:25;46.33;;;23.60;;
4939;SDS011;2485;49.326;7.214;2023-02-23T02:26:32;47.27;;;22.93;;
4939;SDS011;2485;49.326;7.214;2023-02-23T02:32:15;57.80;;;25.43;;
4939;SDS011;2485;49.326;7.214;2023-02-23T02:35:02;52.70;;;24.53;;
4939;SDS011;2485;49.326;7.214;2023-02-23T02:37:38;46.80;;;25.10;;
4939;SDS011;2485;49.326;7.214;2023-02-23T02:40:08;57.43;;;26.77;;
4939;SDS011;2485;49.326;7.214;2023-02-23T02:45:25;61.80;;;25.90;;
4939;SDS011;2485;49.326;7.214;2023-02-23T02:47:54;49.07;;;25.53;;
4939;SDS011;2485;49.326;7.214;2023-02-23T02:50:22;58.57;;;26.57;;
4939;SDS011;2485;49.326;7.214;2023-02-23T02:52:56;55.70;;;26.20;;
4939;SDS011;2485;49.326;7.214;2023-02-23T02:55:27;56.63;;;26.50;;
4939;SDS011;2485;49.326;7.214;2023-02-23T02:57:58;54.67;;;26.37;;
4939;SDS011;2485;49.326;7.214;2023-02-23T03:00:28;50.83;;;25.50;;
4939;SDS011;2485;49.326;7.214;2023-02-23T03:03:26;54.47;;;26.43;;
4939;SDS011;2485;49.326;7.214;2023-02-23T03:06:10;56.23;;;25.43;;
4939;SDS011;2485;49.326;7.214;2023-02-23T03:08:56;54.73;;;25.47;;
4939;SDS011;2485;49.326;7.214;2023-02-23T03:11:46;54.53;;;26.17;;
4939;SDS011;2485;49.326;7.214;2023-02-23T03:14:32;52.53;;;25.93;;
4939;SDS011;2485;49.326;7.214;2023-02-23T03:17:22;60.50;;;28.53;;
4939;SDS011;2485;49.326;7.214;2023-02-23T03:20:10;60.73;;;27.67;;
4939;SDS011;2485;49.326;7.214;2023-02-23T03:22:59;62.00;;;28.60;;
4939;SDS011;2485;49.326;7.214;2023-02-23T03:25:49;51.53;;;26.07;;
4939;SDS011;2485;49.326;7.214;2023-02-23T03:28:36;66.40;;;30.60;;
4939;SDS011;2485;49.326;7.214;2023-02-23T03:31:23;55.13;;;28.33;;
4939;SDS011;2485;49.326;7.214;2023-02-23T03:34:11;55.30;;;27.77;;
4939;SDS011;2485;49.326;7.214;2023-02-23T03:36:59;57.83;;;28.00;;
4939;SDS011;2485;49.326;7.214;2023-02-23T03:39:44;57.30;;;28.10;;
4939;SDS011;2485;49.326;7.214;2023-02-23T03:42:32;61.70;;;28.57;;
4939;SDS011;2485;49.326;7.214;2023-02-23T03:45:19;62.13;;;29.30;;
4939;SDS011;2485;49.326;7.214;2023-02-23T03:48:04;60.00;;;29.40;;
4939;SDS011;2485;49.326;7.214;2023-02-23T03:50:50;62.77;;;29.27;;
4939;SDS011;2485;49.326;7.214;2023-02-23T03:53:36;56.27;;;28.50;;
4939;SDS011;2485;49.326;7.214;2023-02-23T03:56:23;54.63;;;26.03;;
4939;SDS011;2485;49.326;7.214;2023-02-23T03:59:09;48.77;;;25.10;;
4939;SDS011;2485;49.326;7.214;2023-02-23T04:01:55;58.40;;;27.30;;
4939;SDS011;2485;49.326;7.214;2023-02-23T04:04:40;54.07;;;26.83;;
4939;SDS011;2485;49.326;7.214;2023-02-23T04:07:25;57.23;;;27.60;;
4939;SDS011;2485;49.326;7.214;2023-02-23T04:13:37;55.13;;;26.40;;
4939;SDS011;2485;49.326;7.214;2023-02-23T04:16:05;53.57;;;28.00;;
4939;SDS011;2485;49.326;7.214;2023-02-23T04:18:32;62.10;;;29.27;;
4939;SDS011;2485;49.326;7.214;2023-02-23T04:20:59;62.53;;;28.50;;
4939;SDS011;2485;49.326;7.214;2023-02-23T04:23:26;62.83;;;30.30;;
4939;SDS011;2485;49.326;7.214;2023-02-23T04:25:53;64.03;;;30.20;;
4939;SDS011;2485;49.326;7.214;2023-02-23T04:28:19;61.00;;;32.33;;
4939;SDS011;2485;49.326;7.214;2023-02-23T04:30:46;68.30;;;33.93;;
4939;SDS011;2485;49.326;7.214;2023-02-23T04:33:14;59.63;;;30.93;;
4939;SDS011;2485;49.326;7.214;2023-02-23T04:35:40;52.80;;;28.50;;
4939;SDS011;2485;49.326;7.214;2023-02-23T04:38:07;52.97;;;28.33;;
4939;SDS011;2485;49.326;7.214;2023-02-23T04:40:33;51.57;;;27.13;;
4939;SDS011;2485;49.326;7.214;2023-02-23T04:42:59;58.30;;;26.53;;
4939;SDS011;2485;49.326;7.214;2023-02-23T04:45:26;51.33;;;26.23;;
4939;SDS011;2485;49.326;7.214;2023-02-23T04:47:52;48.60;;;25.03;;
4939;SDS011;2485;49.326;7.214;2023-02-23T04:50:20;56.03;;;27.67;;
4939;SDS011;2485;49.326;7.214;2023-02-23T04:52:46;52.77;;;26.00;;
4939;SDS011;2485;49.326;7.214;2023-02-23T04:55:15;50.57;;;26.17;;
4939;SDS011;2485;49.326;7.214;2023-02-23T04:57:42;50.67;;;25.63;;
4939;SDS011;2485;49.326;7.214;2023-02-23T05:00:09;55.03;;;27.37;;
4939;SDS011;2485;49.326;7.214;2023-02-23T05:02:35;50.00;;;24.93;;
4939;SDS011;2485;49.326;7.214;2023-02-23T05:05:01;51.57;;;26.80;;
4939;SDS011;2485;49.326;7.214;2023-02-23T05:07:29;51.33;;;25.63;;
4939;SDS011;2485;49.326;7.214;2023-02-23T05:09:55;48.90;;;26.50;;
4939;SDS011;2485;49.326;7.214;2023-02-23T05:12:22;50.90;;;25.37;;
4939;SDS011;2485;49.326;7.214;2023-02-23T05:14:48;53.60;;;26.90;;
4939;SDS011;2485;49.326;7.214;2023-02-23T05:17:15;48.80;;;25.60;;
4939;SDS011;2485;49.326;7.214;2023-02-23T05:19:41;53.10;;;24.60;;
4939;SDS011;2485;49.326;7.214;2023-02-23T05:22:08;55.87;;;29.17;;
4939;SDS011;2485;49.326;7.214;2023-02-23T05:24:38;58.83;;;27.57;;
4939;SDS011;2485;49.326;7.214;2023-02-23T05:27:04;51.80;;;25.50;;
4939;SDS011;2485;49.326;7.214;2023-02-23T05:29:30;56.23;;;27.73;;
4939;SDS011;2485;49.326;7.214;2023-02-23T05:31:56;50.70;;;25.10;;
4939;SDS011;2485;49.326;7.214;2023-02-23T05:34:23;64.90;;;28.97;;
4939;SDS011;2485;49.326;7.214;2023-02-23T05:36:49;72.07;;;30.90;;
4939;SDS011;2485;49.326;7.214;2023-02-23T05:39:16;63.40;;;27.03;;
4939;SDS011;2485;49.326;7.214;2023-02-23T05:41:43;58.87;;;27.93;;
4939;SDS011;2485;49.326;7.214;2023-02-23T05:44:10;67.50;;;29.97;;
4939;SDS011;2485;49.326;7.214;2023-02-23T05:46:36;57.07;;;28.00;;
4939;SDS011;2485;49.326;7.214;2023-02-23T05:49:03;63.97;;;29.20;;
4939;SDS011;2485;49.326;7.214;2023-02-23T05:51:29;68.47;;;30.20;;
4939;SDS011;2485;49.326;7.214;2023-02-23T05:53:56;58.77;;;27.47;;
4939;SDS011;2485;49.326;7.214;2023-02-23T05:56:23;57.93;;;28.90;;
4939;SDS011;2485;49.326;7.214;2023-02-23T05:58:51;65.13;;;29.33;;
4939;SDS011;2485;49.326;7.214;2023-02-23T06:01:18;66.77;;;30.33;;
4939;SDS011;2485;49.326;7.214;2023-02-23T06:03:45;71.53;;;28.97;;
4939;SDS011;2485;49.326;7.214;2023-02-23T06:06:11;64.20;;;30.10;;
4939;SDS011;2485;49.326;7.214;2023-02-23T06:08:38;66.47;;;28.60;;
4939;SDS011;2485;49.326;7.214;2023-02-23T06:11:07;73.47;;;31.23;;
4939;SDS011;2485;49.326;7.214;2023-02-23T06:13:33;69.00;;;32.53;;
4939;SDS011;2485;49.326;7.214;2023-02-23T06:16:01;71.27;;;31.77;;
4939;SDS011;2485;49.326;7.214;2023-02-23T06:18:27;78.50;;;33.10;;
4939;SDS011;2485;49.326;7.214;2023-02-23T06:20:54;74.17;;;31.43;;
4939;SDS011;2485;49.326;7.214;2023-02-23T06:23:21;77.27;;;32.73;;
4939;SDS011;2485;49.326;7.214;2023-02-23T06:25:48;69.40;;;30.40;;
4939;SDS011;2485;49.326;7.214;2023-02-23T06:28:14;68.37;;;32.07;;
4939;SDS011;2485;49.326;7.214;2023-02-23T06:30:40;64.23;;;29.47;;
4939;SDS011;2485;49.326;7.214;2023-02-23T06:33:08;62.60;;;29.53;;
4939;SDS011;2485;49.326;7.214;2023-02-23T06:35:34;71.90;;;32.43;;
4939;SDS011;2485;49.326;7.214;2023-02-23T06:38:01;67.20;;;29.70;;
4939;SDS011;2485;49.326;7.214;2023-02-23T06:40:27;61.83;;;29.77;;
4939;SDS011;2485;49.326;7.214;2023-02-23T06:42:54;65.40;;;28.70;;
4939;SDS011;2485;49.326;7.214;2023-02-23T06:45:20;63.80;;;28.80;;
4939;SDS011;2485;49.326;7.214;2023-02-23T06:47:47;56.37;;;28.80;;
4939;SDS011;2485;49.326;7.214;2023-02-23T06:50:15;60.27;;;28.53;;
4939;SDS011;2485;49.326;7.214;2023-02-23T06:52:42;62.93;;;29.57;;
4939;SDS011;2485;49.326;7.214;2023-02-23T06:55:08;59.30;;;27.90;;
4939;SDS011;2485;49.326;7.214;2023-02-23T06:57:34;61.23;;;28.50;;
4939;SDS011;2485;49.326;7.214;2023-02-23T07:00:01;60.10;;;28.53;;
4939;SDS011;2485;49.326;7.214;2023-02-23T07:02:28;60.07;;;29.47;;
4939;SDS011;2485;49.326;7.214;2023-02-23T07:04:54;65.57;;;29.70;;
4939;SDS011;2485;49.326;7.214;2023-02-23T07:07:22;63.03;;;29.27;;
4939;SDS011;2485;49.326;7.214;2023-02-23T07:09:49;62.93;;;28.67;;
4939;SDS011;2485;49.326;7.214;2023-02-23T07:12:16;54.93;;;26.23;;
4939;SDS011;2485;49.326;7.214;2023-02-23T07:14:42;53.70;;;27.30;;
4939;SDS011;2485;49.326;7.214;2023-02-23T07:17:08;51.90;;;25.43;;
4939;SDS011;2485;49.326;7.214;2023-02-23T07:19:35;46.43;;;23.57;;
4939;SDS011;2485;49.326;7.214;2023-02-23T07:22:02;48.67;;;21.73;;
4939;SDS011;2485;49.326;7.214;2023-02-23T07:24:30;47.30;;;23.53;;
4939;SDS011;2485;49.326;7.214;2023-02-23T07:26:56;51.10;;;23.53;;
4939;SDS011;2485;49.326;7.214;2023-02-23T07:29:22;41.23;;;21.77;;
4939;SDS011;2485;49.326;7.214;2023-02-23T07:31:49;45.83;;;22.00;;
4939;SDS011;2485;49.326;7.214;2023-02-23T07:34:15;43.67;;;22.03;;
4939;SDS011;2485;49.326;7.214;2023-02-23T07:36:42;46.53;;;23.37;;
4939;SDS011;2485;49.326;7.214;2023-02-23T07:39:08;47.17;;;22.37;;
4939;SDS011;2485;49.326;7.214;2023-02-23T07:41:36;46.40;;;21.70;;
4939;SDS011;2485;49.326;7.214;2023-02-23T07:44:02;45.23;;;23.23;;
4939;SDS011;2485;49.326;7.214;2023-02-23T07:46:28;47.37;;;23.40;;
4939;SDS011;2485;49.326;7.214;2023-02-23T07:48:55;51.00;;;24.07;;
4939;SDS011;2485;49.326;7.214;2023-02-23T07:51:21;45.70;;;24.43;;
4939;SDS011;2485;49.326;7.214;2023-02-23T07:53:47;50.30;;;24.00;;
4939;SDS011;2485;49.326;7.214;2023-02-23T07:56:14;44.97;;;24.60;;
4939;SDS011;2485;49.326;7.214;2023-02-23T07:58:43;52.80;;;24.93;;
4939;SDS011;2485;49.326;7.214;2023-02-23T08:01:10;44.57;;;23.50;;
4939;SDS011;2485;49.326;7.214;2023-02-23T08:03:36;43.73;;;23.03;;
4939;SDS011;2485;49.326;7.214;2023-02-23T08:06:03;49.27;;;22.23;;
4939;SDS011;2485;49.326;7.214;2023-02-23T08:08:29;42.37;;;22.27;;
4939;SDS011;2485;49.326;7.214;2023-02-23T08:10:59;42.33;;;21.87;;
4939;SDS011;2485;49.326;7.214;2023-02-23T08:13:25;44.17;;;22.97;;
4939;SDS011;2485;49.326;7.214;2023-02-23T08:15:53;38.63;;;21.77;;
4939;SDS011;2485;49.326;7.214;2023-02-23T08:18:20;40.63;;;21.60;;
4939;SDS011;2485;49.326;7.214;2023-02-23T08:20:46;34.27;;;19.43;;
4939;SDS011;2485;49.326;7.214;2023-02-23T08:23:12;38.07;;;19.50;;
4939;SDS011;2485;49.326;7.214;2023-02-23T08:25:41;38.20;;;20.83;;
4939;SDS011;2485;49.326;7.214;2023-02-23T08:28:07;42.10;;;21.40;;
4939;SDS011;2485;49.326;7.214;2023-02-23T08:30:33;38.03;;;21.27;;
4939;SDS011;2485;49.326;7.214;2023-02-23T08:33:01;36.07;;;19.43;;
4939;SDS011;2485;49.326;7.214;2023-02-23T08:35:29;40.03;;;20.87;;
4939;SDS011;2485;49.326;7.214;2023-02-23T08:37:56;37.77;;;21.10;;
4939;SDS011;2485;49.326;7.214;2023-02-23T08:40:23;33.23;;;18.70;;
4939;SDS011;2485;49.326;7.214;2023-02-23T08:42:49;32.57;;;17.97;;
4939;SDS011;2485;49.326;7.214;2023-02-23T08:45:16;33.57;;;19.30;;
4939;SDS011;2485;49.326;7.214;2023-02-23T08:47:43;32.93;;;18.20;;
4939;SDS011;2485;49.326;7.214;2023-02-23T08:50:11;33.23;;;19.03;;
4939;SDS011;2485;49.326;7.214;2023-02-23T08:52:38;31.30;;;17.37;;
4939;SDS011;2485;49.326;7.214;2023-02-23T08:55:05;29.30;;;17.37;;
4939;SDS011;2485;49.326;7.214;2023-02-23T08:57:31;33.37;;;18.20;;
4939;SDS011;2485;49.326;7.214;2023-02-23T08:59:58;29.00;;;17.60;;
4939;SDS011;2485;49.326;7.214;2023-02-23T09:02:27;32.27;;;17.57;;
4939;SDS011;2485;49.326;7.214;2023-02-23T09:04:55;29.83;;;16.73;;
4939;SDS011;2485;49.326;7.214;2023-02-23T09:07:23;30.07;;;16.13;;
4939;SDS011;2485;49.326;7.214;2023-02-23T09:09:53;28.73;;;16.23;;
4939;SDS011;2485;49.326;7.214;2023-02-23T09:12:20;24.23;;;15.67;;
4939;SDS011;2485;49.326;7.214;2023-02-23T09:14:46;28.27;;;16.40;;
4939;SDS011;2485;49.326;7.214;2023-02-23T09:17:12;29.50;;;16.10;;
4939;SDS011;2485;49.326;7.214;2023-02-23T09:19:39;28.90;;;16.73;;
4939;SDS011;2485;49.326;7.214;2023-02-23T09:22:05;29.73;;;15.90;;
4939;SDS011;2485;49.326;7.214;2023-02-23T09:24:33;28.40;;;17.20;;
4939;SDS011;2485;49.326;7.214;2023-02-23T09:26:59;34.23;;;17.13;;
4939;SDS011;2485;49.326;7.214;2023-02-23T09:29:26;28.33;;;16.60;;
4939;SDS011;2485;49.326;7.214;2023-02-23T09:31:52;29.67;;;17.90;;
4939;SDS011;2485;49.326;7.214;2023-02-23T09:34:21;32.57;;;17.50;;
4939;SDS011;2485;49.326;7.214;2023-02-23T09:36:47;27.83;;;16.93;;
4939;SDS011;2485;49.326;7.214;2023-02-23T09:39:15;27.73;;;16.53;;
4939;SDS011;2485;49.326;7.214;2023-02-23T09:41:49;33.60;;;19.00;;
4939;SDS011;2485;49.326;7.214;2023-02-23T09:44:20;28.67;;;17.97;;
4939;SDS011;2485;49.326;7.214;2023-02-23T09:46:51;31.60;;;18.93;;
4939;SDS011;2485;49.326;7.214;2023-02-23T09:49:20;33.03;;;18.07;;
4939;SDS011;2485;49.326;7.214;2023-02-23T09:51:48;29.67;;;17.77;;
4939;SDS011;2485;49.326;7.214;2023-02-23T09:54:19;28.33;;;18.33;;
4939;SDS011;2485;49.326;7.214;2023-02-23T09:56:49;37.57;;;18.73;;
4939;SDS011;2485;49.326;7.214;2023-02-23T09:59:19;33.67;;;18.73;;
4939;SDS011;2485;49.326;7.214;2023-02-23T10:01:49;30.47;;;18.40;;
4939;SDS011;2485;49.326;7.214;2023-02-23T10:04:20;30.40;;;18.93;;
4939;SDS011;2485;49.326;7.214;2023-02-23T10:06:48;29.60;;;18.03;;
4939;SDS011;2485;49.326;7.214;2023-02-23T10:09:17;32.70;;;19.27;;
4939;SDS011;2485;49.326;7.214;2023-02-23T10:11:48;28.17;;;17.67;;
4939;SDS011;2485;49.326;7.214;2023-02-23T10:14:24;30.33;;;18.37;;
4939;SDS011;2485;49.326;7.214;2023-02-23T10:16:59;34.27;;;18.00;;
4939;SDS011;2485;49.326;7.214;2023-02-23T10:19:31;30.90;;;19.27;;
4939;SDS011;2485;49.326;7.214;2023-02-23T10:22:02;32.90;;;19.27;;
4939;SDS011;2485;49.326;7.214;2023-02-23T10:24:29;34.77;;;19.40;;
4939;SDS011;2485;49.326;7.214;2023-02-23T10:26:59;32.47;;;19.10;;
4939;SDS011;2485;49.326;7.214;2023-02-23T10:29:31;34.47;;;20.23;;
4939;SDS011;2485;49.326;7.214;2023-02-23T10:32:01;31.93;;;18.97;;
4939;SDS011;2485;49.326;7.214;2023-02-23T10:34:29;37.40;;;20.73;;
4939;SDS011;2485;49.326;7.214;2023-02-23T10:36:57;33.27;;;18.77;;
4939;SDS011;2485;49.326;7.214;2023-02-23T10:39:24;31.03;;;19.77;;
4939;SDS011;2485;49.326;7.214;2023-02-23T10:41:50;32.37;;;19.60;;
4939;SDS011;2485;49.326;7.214;2023-02-23T10:44:21;32.43;;;18.50;;
4939;SDS011;2485;49.326;7.214;2023-02-23T10:46:51;35.97;;;20.47;;
4939;SDS011;2485;49.326;7.214;2023-02-23T10:49:20;32.40;;;20.20;;
4939;SDS011;2485;49.326;7.214;2023-02-23T10:51:48;34.90;;;19.57;;
4939;SDS011;2485;49.326;7.214;2023-02-23T10:54:35;33.70;;;19.07;;
4939;SDS011;2485;49.326;7.214;2023-02-23T10:57:02;34.97;;;19.73;;
4939;SDS011;2485;49.326;7.214;2023-02-23T10:59:28;35.17;;;19.37;;
4939;SDS011;2485;49.326;7.214;2023-02-23T11:01:56;37.87;;;20.07;;
4939;SDS011;2485;49.326;7.214;2023-02-23T11:04:23;40.77;;;21.40;;
4939;SDS011;2485;49.326;7.214;2023-02-23T11:06:50;39.43;;;21.10;;
4939;SDS011;2485;49.326;7.214;2023-02-23T11:09:30;39.83;;;21.70;;
4939;SDS011;2485;49.326;7.214;2023-02-23T11:11:58;41.60;;;22.67;;
4939;SDS011;2485;49.326;7.214;2023-02-23T11:14:27;39.07;;;22.80;;
4939;SDS011;2485;49.326;7.214;2023-02-23T11:16:54;41.73;;;23.10;;
4939;SDS011;2485;49.326;7.214;2023-02-23T11:19:23;37.77;;;20.80;;
4939;SDS011;2485;49.326;7.214;2023-02-23T11:21:50;40.90;;;23.03;;
4939;SDS011;2485;49.326;7.214;2023-02-23T11:24:17;43.33;;;24.00;;
4939;SDS011;2485;49.326;7.214;2023-02-23T11:26:45;42.80;;;22.57;;
4939;SDS011;2485;49.326;7.214;2023-02-23T11:29:13;44.30;;;21.10;;
4939;SDS011;2485;49.326;7.214;2023-02-23T11:31:44;42.53;;;23.17;;
4939;SDS011;2485;49.326;7.214;2023-02-23T11:34:18;39.50;;;20.50;;
4939;SDS011;2485;49.326;7.214;2023-02-23T11:36:47;44.57;;;23.37;;
4939;SDS011;2485;49.326;7.214;2023-02-23T11:39:22;41.87;;;21.73;;
4939;SDS011;2485;49.326;7.214;2023-02-23T11:42:02;38.87;;;19.90;;
4939;SDS011;2485;49.326;7.214;2023-02-23T11:44:29;41.00;;;21.23;;
4939;SDS011;2485;49.326;7.214;2023-02-23T11:46:55;38.87;;;21.30;;
4939;SDS011;2485;49.326;7.214;2023-02-23T11:49:24;37.93;;;20.30;;
4939;SDS011;2485;49.326;7.214;2023-02-23T11:51:53;38.37;;;21.10;;
4939;SDS011;2485;49.326;7.214;2023-02-23T11:54:20;39.20;;;20.33;;
4939;SDS011;2485;49.326;7.214;2023-02-23T11:56:48;35.27;;;19.57;;
4939;SDS011;2485;49.326;7.214;2023-02-23T11:59:17;38.07;;;19.93;;
4939;SDS011;2485;49.326;7.214;2023-02-23T12:01:45;35.03;;;19.87;;
4939;SDS011;2485;49.326;7.214;2023-02-23T12:04:22;31.93;;;17.67;;
4939;SDS011;2485;49.326;7.214;2023-02-23T12:06:48;30.67;;;16.70;;
4939;SDS011;2485;49.326;7.214;2023-02-23T12:09:18;33.03;;;17.73;;
4939;SDS011;2485;49.326;7.214;2023-02-23T12:11:45;35.67;;;17.10;;
4939;SDS011;2485;49.326;7.214;2023-02-23T12:14:17;40.33;;;18.00;;
4939;SDS011;2485;49.326;7.214;2023-02-23T12:16:47;32.80;;;18.60;;
4939;SDS011;2485;49.326;7.214;2023-02-23T12:19:20;32.70;;;17.30;;
4939;SDS011;2485;49.326;7.214;2023-02-23T12:21:50;26.80;;;15.23;;
4939;SDS011;2485;49.326;7.214;2023-02-23T12:24:21;24.73;;;13.97;;
4939;SDS011;2485;49.326;7.214;2023-02-23T12:26:52;27.73;;;14.00;;
4939;SDS011;2485;49.326;7.214;2023-02-23T12:29:20;24.27;;;13.90;;
4939;SDS011;2485;49.326;7.214;2023-02-23T12:31:48;23.43;;;13.67;;
4939;SDS011;2485;49.326;7.214;2023-02-23T12:34:18;25.60;;;12.27;;
4939;SDS011;2485;49.326;7.214;2023-02-23T12:36:47;22.47;;;13.13;;
4939;SDS011;2485;49.326;7.214;2023-02-23T12:39:20;22.50;;;13.30;;
4939;SDS011;2485;49.326;7.214;2023-02-23T12:41:54;21.73;;;13.10;;
4939;SDS011;2485;49.326;7.214;2023-02-23T12:44:28;31.43;;;13.13;;
4939;SDS011;2485;49.326;7.214;2023-02-23T12:46:55;25.47;;;12.93;;
4939;SDS011;2485;49.326;7.214;2023-02-23T12:49:24;23.07;;;13.20;;
4939;SDS011;2485;49.326;7.214;2023-02-23T12:51:56;19.60;;;12.57;;
4939;SDS011;2485;49.326;7.214;2023-02-23T12:54:26;19.03;;;11.83;;
4939;SDS011;2485;49.326;7.214;2023-02-23T12:56:58;21.17;;;12.50;;
4939;SDS011;2485;49.326;7.214;2023-02-23T12:59:36;25.73;;;13.60;;
4939;SDS011;2485;49.326;7.214;2023-02-23T13:02:09;23.33;;;13.17;;
4939;SDS011;2485;49.326;7.214;2023-02-23T13:05:02;26.60;;;13.57;;
4939;SDS011;2485;49.326;7.214;2023-02-23T13:07:34;23.13;;;13.57;;
4939;SDS011;2485;49.326;7.214;2023-02-23T13:10:04;26.27;;;13.20;;
4939;SDS011;2485;49.326;7.214;2023-02-23T13:12:41;25.17;;;13.83;;
4939;SDS011;2485;49.326;7.214;2023-02-23T13:15:16;25.20;;;13.40;;
4939;SDS011;2485;49.326;7.214;2023-02-23T13:17:47;20.80;;;12.50;;
4939;SDS011;2485;49.326;7.214;2023-02-23T13:20:17;21.00;;;11.40;;
4939;SDS011;2485;49.326;7.214;2023-02-23T13:22:48;23.73;;;12.90;;
4939;SDS011;2485;49.326;7.214;2023-02-23T13:25:23;19.40;;;11.10;;
4939;SDS011;2485;49.326;7.214;2023-02-23T13:27:54;17.30;;;9.83;;
4939;SDS011;2485;49.326;7.214;2023-02-23T13:30:20;22.53;;;10.73;;
4939;SDS011;2485;49.326;7.214;2023-02-23T13:32:47;19.37;;;11.13;;
4939;SDS011;2485;49.326;7.214;2023-02-23T13:35:14;21.40;;;10.37;;
4939;SDS011;2485;49.326;7.214;2023-02-23T13:37:41;15.60;;;9.20;;
4939;SDS011;2485;49.326;7.214;2023-02-23T13:40:14;15.67;;;9.40;;
4939;SDS011;2485;49.326;7.214;2023-02-23T13:42:44;16.50;;;8.13;;
4939;SDS011;2485;49.326;7.214;2023-02-23T13:45:26;20.33;;;9.50;;
4939;SDS011;2485;49.326;7.214;2023-02-23T13:47:55;17.10;;;8.10;;
4939;SDS011;2485;49.326;7.214;2023-02-23T13:50:23;14.30;;;9.03;;
4939;SDS011;2485;49.326;7.214;2023-02-23T13:52:51;15.10;;;8.00;;
4939;SDS011;2485;49.326;7.214;2023-02-23T13:55:33;17.63;;;9.47;;
4939;SDS011;2485;49.326;7.214;2023-02-23T13:58:02;14.67;;;8.23;;
4939;SDS011;2485;49.326;7.214;2023-02-23T14:00:31;13.30;;;8.27;;
4939;SDS011;2485;49.326;7.214;2023-02-23T14:03:00;15.27;;;7.47;;
4939;SDS011;2485;49.326;7.214;2023-02-23T14:05:27;13.77;;;7.80;;
4939;SDS011;2485;49.326;7.214;2023-02-23T14:07:54;12.30;;;7.70;;
4939;SDS011;2485;49.326;7.214;2023-02-23T14:10:22;11.90;;;6.93;;
4939;SDS011;2485;49.326;7.214;2023-02-23T14:13:05;11.83;;;7.47;;
4939;SDS011;2485;49.326;7.214;2023-02-23T14:15:43;10.30;;;6.90;;
4939;SDS011;2485;49.326;7.214;2023-02-23T14:18:29;11.17;;;7.50;;
4939;SDS011;2485;49.326;7.214;2023-02-23T14:20:56;12.10;;;7.37;;
4939;SDS011;2485;49.326;7.214;2023-02-23T14:23:27;11.40;;;7.23;;
4939;SDS011;2485;49.326;7.214;2023-02-23T14:28:36;10.50;;;6.90;;
4939;SDS011;2485;49.326;7.214;2023-02-23T14:31:14;8.90;;;6.63;;
4939;SDS011;2485;49.326;7.214;2023-02-23T14:33:49;12.70;;;6.90;;
4939;SDS011;2485;49.326;7.214;2023-02-23T14:36:28;10.83;;;6.70;;
4939;SDS011;2485;49.326;7.214;2023-02-23T14:38:58;7.87;;;5.23;;
4939;SDS011;2485;49.326;7.214;2023-02-23T14:41:25;7.63;;;5.50;;
4939;SDS011;2485;49.326;7.214;2023-02-23T14:43:53;10.40;;;6.37;;
4939;SDS011;2485;49.326;7.214;2023-02-23T14:46:22;7.90;;;5.50;;
4939;SDS011;2485;49.326;7.214;2023-02-23T14:48:55;9.87;;;5.53;;
4939;SDS011;2485;49.326;7.214;2023-02-23T14:51:24;7.60;;;5.27;;
4939;SDS011;2485;49.326;7.214;2023-02-23T14:53:52;6.00;;;4.17;;
4939;SDS011;2485;49.326;7.214;2023-02-23T14:56:23;5.83;;;4.10;;
4939;SDS011;2485;49.326;7.214;2023-02-23T14:58:50;6.43;;;4.70;;
4939;SDS011;2485;49.326;7.214;2023-02-23T15:04:10;5.97;;;4.47;;
4939;SDS011;2485;49.326;7.214;2023-02-23T15:06:37;5.90;;;4.27;;
4939;SDS011;2485;49.326;7.214;2023-02-23T15:09:05;7.20;;;4.67;;
4939;SDS011;2485;49.326;7.214;2023-02-23T15:11:32;6.37;;;4.47;;
4939;SDS011;2485;49.326;7.214;2023-02-23T15:13:58;6.50;;;4.13;;
4939;SDS011;2485;49.326;7.214;2023-02-23T15:16:26;7.97;;;4.80;;
4939;SDS011;2485;49.326;7.214;2023-02-23T15:18:53;5.97;;;4.20;;
4939;SDS011;2485;49.326;7.214;2023-02-23T15:21:22;5.60;;;3.90;;
4939;SDS011;2485;49.326;7.214;2023-02-23T15:23:49;8.37;;;4.63;;
4939;SDS011;2485;49.326;7.214;2023-02-23T15:26:16;7.20;;;4.90;;